Terminal Aerodrome Forecast
Issued by NWS

Home | Current Version | Previous Version | Text Only | Print | Product List | Glossary On
Versions: 1 2 3 4 5 6 7 8 9 10 11 12 13 14 15
000
FTUS45 KABQ 030525
TAFROW
TAF
KROW 030525Z 0306/0406 17008KT P6SM FEW120 BKN200
     FM031000 VRB05KT P6SM SCT140 BKN200
     FM031900 17011KT P6SM BKN110
     FM040200 20008KT P6SM BKN120=

USA.gov is the U.S. government's official web portal to all federal, state and local government web resources and services.